sensor_id;sensor_type;location;lat;lon;timestamp;P1;P2;P0
49914;PMS5003;35806;47.958;13.158;2022-12-07T00:01:04;39;31;
49914;PMS5003;35806;47.958;13.158;2022-12-07T00:03:37;38;35;
49914;PMS5003;35806;47.958;13.158;2022-12-07T00:06:06;38;34;
49914;PMS5003;35806;47.958;13.158;2022-12-07T00:08:35;34;32;
49914;PMS5003;35806;47.958;13.158;2022-12-07T00:11:03;41;33;
49914;PMS5003;35806;47.958;13.158;2022-12-07T00:13:32;38;34;
49914;PMS5003;35806;47.958;13.158;2022-12-07T00:16:01;33;32;
49914;PMS5003;35806;47.958;13.158;2022-12-07T00:18:29;43;39;
49914;PMS5003;35806;47.958;13.158;2022-12-07T00:20:59;34;31;
49914;PMS5003;35806;47.958;13.158;2022-12-07T00:23:27;42;35;
49914;PMS5003;35806;47.958;13.158;2022-12-07T00:25:54;38;33;
49914;PMS5003;35806;47.958;13.158;2022-12-07T00:28:21;47;44;
49914;PMS5003;35806;47.958;13.158;2022-12-07T00:30:49;46;38;
49914;PMS5003;35806;47.958;13.158;2022-12-07T00:33:16;36;32;
49914;PMS5003;35806;47.958;13.158;2022-12-07T00:35:43;35;32;
49914;PMS5003;35806;47.958;13.158;2022-12-07T00:38:10;48;40;
49914;PMS5003;35806;47.958;13.158;2022-12-07T00:40:37;44;37;
49914;PMS5003;35806;47.958;13.158;2022-12-07T00:43:04;46;41;
49914;PMS5003;35806;47.958;13.158;2022-12-07T00:45:37;44;38;
49914;PMS5003;35806;47.958;13.158;2022-12-07T00:48:04;49;39;
49914;PMS5003;35806;47.958;13.158;2022-12-07T00:50:36;42;32;
49914;PMS5003;35806;47.958;13.158;2022-12-07T00:53:03;40;32;
49914;PMS5003;35806;47.958;13.158;2022-12-07T00:55:32;46;40;
49914;PMS5003;35806;47.958;13.158;2022-12-07T00:57:59;44;40;
49914;PMS5003;35806;47.958;13.158;2022-12-07T01:00:26;55;42;
49914;PMS5003;35806;47.958;13.158;2022-12-07T01:02:53;39;33;
49914;PMS5003;35806;47.958;13.158;2022-12-07T01:05:20;36;31;
49914;PMS5003;35806;47.958;13.158;2022-12-07T01:07:47;39;35;
49914;PMS5003;35806;47.958;13.158;2022-12-07T01:10:14;50;38;
49914;PMS5003;35806;47.958;13.158;2022-12-07T01:12:42;38;33;
49914;PMS5003;35806;47.958;13.158;2022-12-07T01:15:10;35;31;
49914;PMS5003;35806;47.958;13.158;2022-12-07T01:17:37;35;29;
49914;PMS5003;35806;47.958;13.158;2022-12-07T01:20:05;43;37;
49914;PMS5003;35806;47.958;13.158;2022-12-07T01:22:36;43;38;
49914;PMS5003;35806;47.958;13.158;2022-12-07T01:25:03;43;35;
49914;PMS5003;35806;47.958;13.158;2022-12-07T01:27:32;42;36;
49914;PMS5003;35806;47.958;13.158;2022-12-07T01:29:59;49;40;
49914;PMS5003;35806;47.958;13.158;2022-12-07T01:32:27;43;32;
49914;PMS5003;35806;47.958;13.158;2022-12-07T01:34:54;43;31;
49914;PMS5003;35806;47.958;13.158;2022-12-07T01:37:22;36;34;
49914;PMS5003;35806;47.958;13.158;2022-12-07T01:39:49;46;42;
49914;PMS5003;35806;47.958;13.158;2022-12-07T01:42:17;38;33;
49914;PMS5003;35806;47.958;13.158;2022-12-07T01:45:22;43;41;
49914;PMS5003;35806;47.958;13.158;2022-12-07T01:48:07;43;34;
49914;PMS5003;35806;47.958;13.158;2022-12-07T01:50:36;37;33;
49914;PMS5003;35806;47.958;13.158;2022-12-07T01:53:06;44;38;
49914;PMS5003;35806;47.958;13.158;2022-12-07T01:55:37;44;38;
49914;PMS5003;35806;47.958;13.158;2022-12-07T01:58:08;34;33;
49914;PMS5003;35806;47.958;13.158;2022-12-07T02:15:32;44;38;
49914;PMS5003;35806;47.958;13.158;2022-12-07T02:18:07;51;42;
49914;PMS5003;35806;47.958;13.158;2022-12-07T02:20:42;41;35;
49914;PMS5003;35806;47.958;13.158;2022-12-07T02:23:30;38;30;
49914;PMS5003;35806;47.958;13.158;2022-12-07T02:26:32;46;38;
49914;PMS5003;35806;47.958;13.158;2022-12-07T02:29:25;38;35;
49914;PMS5003;35806;47.958;13.158;2022-12-07T02:31:58;37;31;
49914;PMS5003;35806;47.958;13.158;2022-12-07T02:34:34;39;36;
49914;PMS5003;35806;47.958;13.158;2022-12-07T02:37:09;42;36;
49914;PMS5003;35806;47.958;13.158;2022-12-07T02:39:43;31;27;
49914;PMS5003;35806;47.958;13.158;2022-12-07T02:42:19;34;32;
49914;PMS5003;35806;47.958;13.158;2022-12-07T02:44:51;41;34;
49914;PMS5003;35806;47.958;13.158;2022-12-07T02:47:19;44;36;
49914;PMS5003;35806;47.958;13.158;2022-12-07T02:49:48;36;32;
49914;PMS5003;35806;47.958;13.158;2022-12-07T02:52:17;41;31;
49914;PMS5003;35806;47.958;13.158;2022-12-07T02:54:45;36;30;
49914;PMS5003;35806;47.958;13.158;2022-12-07T02:57:17;38;34;
49914;PMS5003;35806;47.958;13.158;2022-12-07T03:00:00;41;34;
49914;PMS5003;35806;47.958;13.158;2022-12-07T03:02:32;35;29;
49914;PMS5003;35806;47.958;13.158;2022-12-07T03:05:11;36;28;
49914;PMS5003;35806;47.958;13.158;2022-12-07T03:07:50;35;29;
49914;PMS5003;35806;47.958;13.158;2022-12-07T03:10:28;37;30;
49914;PMS5003;35806;47.958;13.158;2022-12-07T03:13:03;38;33;
49914;PMS5003;35806;47.958;13.158;2022-12-07T03:15:38;32;31;
49914;PMS5003;35806;47.958;13.158;2022-12-07T03:18:08;39;32;
49914;PMS5003;35806;47.958;13.158;2022-12-07T03:20:39;32;30;
49914;PMS5003;35806;47.958;13.158;2022-12-07T03:23:10;29;24;
49914;PMS5003;35806;47.958;13.158;2022-12-07T03:25:43;32;26;
49914;PMS5003;35806;47.958;13.158;2022-12-07T03:28:19;32;29;
49914;PMS5003;35806;47.958;13.158;2022-12-07T03:30:51;33;33;
49914;PMS5003;35806;47.958;13.158;2022-12-07T03:33:22;32;31;
49914;PMS5003;35806;47.958;13.158;2022-12-07T03:35:54;31;28;
49914;PMS5003;35806;47.958;13.158;2022-12-07T03:38:28;31;23;
49914;PMS5003;35806;47.958;13.158;2022-12-07T03:41:04;39;34;
49914;PMS5003;35806;47.958;13.158;2022-12-07T03:43:35;38;38;
49914;PMS5003;35806;47.958;13.158;2022-12-07T03:46:07;31;26;
49914;PMS5003;35806;47.958;13.158;2022-12-07T03:48:46;34;25;
49914;PMS5003;35806;47.958;13.158;2022-12-07T03:51:23;32;26;
49914;PMS5003;35806;47.958;13.158;2022-12-07T03:53:57;35;31;
49914;PMS5003;35806;47.958;13.158;2022-12-07T03:56:29;30;26;
49914;PMS5003;35806;47.958;13.158;2022-12-07T03:58:58;32;30;
49914;PMS5003;35806;47.958;13.158;2022-12-07T04:01:25;32;32;
49914;PMS5003;35806;47.958;13.158;2022-12-07T04:03:53;41;32;
49914;PMS5003;35806;47.958;13.158;2022-12-07T04:06:20;28;24;
49914;PMS5003;35806;47.958;13.158;2022-12-07T04:08:47;31;25;
49914;PMS5003;35806;47.958;13.158;2022-12-07T04:11:15;34;29;
49914;PMS5003;35806;47.958;13.158;2022-12-07T04:13:42;31;26;
49914;PMS5003;35806;47.958;13.158;2022-12-07T04:16:09;33;27;
49914;PMS5003;35806;47.958;13.158;2022-12-07T04:18:37;28;25;
49914;PMS5003;35806;47.958;13.158;2022-12-07T04:21:04;30;26;
49914;PMS5003;35806;47.958;13.158;2022-12-07T04:23:32;30;29;
49914;PMS5003;35806;47.958;13.158;2022-12-07T04:25:59;29;25;
49914;PMS5003;35806;47.958;13.158;2022-12-07T04:28:27;31;29;
49914;PMS5003;35806;47.958;13.158;2022-12-07T04:30:54;31;27;
49914;PMS5003;35806;47.958;13.158;2022-12-07T04:33:21;30;27;
49914;PMS5003;35806;47.958;13.158;2022-12-07T04:35:58;31;26;
49914;PMS5003;35806;47.958;13.158;2022-12-07T04:38:26;33;26;
49914;PMS5003;35806;47.958;13.158;2022-12-07T04:40:53;34;32;
49914;PMS5003;35806;47.958;13.158;2022-12-07T04:43:20;34;29;
49914;PMS5003;35806;47.958;13.158;2022-12-07T04:45:48;33;31;
49914;PMS5003;35806;47.958;13.158;2022-12-07T04:48:15;31;27;
49914;PMS5003;35806;47.958;13.158;2022-12-07T04:50:41;38;31;
49914;PMS5003;35806;47.958;13.158;2022-12-07T04:53:19;32;29;
49914;PMS5003;35806;47.958;13.158;2022-12-07T04:55:46;36;35;
49914;PMS5003;35806;47.958;13.158;2022-12-07T04:58:13;29;29;
49914;PMS5003;35806;47.958;13.158;2022-12-07T05:00:41;30;29;
49914;PMS5003;35806;47.958;13.158;2022-12-07T05:03:08;33;28;
49914;PMS5003;35806;47.958;13.158;2022-12-07T05:05:35;34;31;
49914;PMS5003;35806;47.958;13.158;2022-12-07T05:08:05;37;27;
49914;PMS5003;35806;47.958;13.158;2022-12-07T05:10:32;27;25;
49914;PMS5003;35806;47.958;13.158;2022-12-07T05:13:00;29;29;
49914;PMS5003;35806;47.958;13.158;2022-12-07T05:15:26;30;23;
49914;PMS5003;35806;47.958;13.158;2022-12-07T05:17:53;36;30;
49914;PMS5003;35806;47.958;13.158;2022-12-07T05:20:21;37;32;
49914;PMS5003;35806;47.958;13.158;2022-12-07T05:22:48;33;30;
49914;PMS5003;35806;47.958;13.158;2022-12-07T05:25:16;29;25;
49914;PMS5003;35806;47.958;13.158;2022-12-07T05:27:43;35;27;
49914;PMS5003;35806;47.958;13.158;2022-12-07T05:30:10;34;31;
49914;PMS5003;35806;47.958;13.158;2022-12-07T05:32:39;41;33;
49914;PMS5003;35806;47.958;13.158;2022-12-07T05:35:06;34;29;
49914;PMS5003;35806;47.958;13.158;2022-12-07T05:37:34;30;24;
49914;PMS5003;35806;47.958;13.158;2022-12-07T05:40:00;31;27;
49914;PMS5003;35806;47.958;13.158;2022-12-07T05:42:27;29;29;
49914;PMS5003;35806;47.958;13.158;2022-12-07T05:44:54;38;35;
49914;PMS5003;35806;47.958;13.158;2022-12-07T05:47:22;35;34;
49914;PMS5003;35806;47.958;13.158;2022-12-07T05:49:49;35;29;
49914;PMS5003;35806;47.958;13.158;2022-12-07T05:52:17;30;27;
49914;PMS5003;35806;47.958;13.158;2022-12-07T05:54:44;29;25;
49914;PMS5003;35806;47.958;13.158;2022-12-07T05:57:11;26;24;
49914;PMS5003;35806;47.958;13.158;2022-12-07T05:59:39;34;31;
49914;PMS5003;35806;47.958;13.158;2022-12-07T06:02:07;27;23;
49914;PMS5003;35806;47.958;13.158;2022-12-07T06:04:36;38;33;
49914;PMS5003;35806;47.958;13.158;2022-12-07T06:07:05;35;31;
49914;PMS5003;35806;47.958;13.158;2022-12-07T06:09:37;31;25;
49914;PMS5003;35806;47.958;13.158;2022-12-07T06:12:05;37;29;
49914;PMS5003;35806;47.958;13.158;2022-12-07T06:14:33;29;22;
49914;PMS5003;35806;47.958;13.158;2022-12-07T06:17:00;28;22;
49914;PMS5003;35806;47.958;13.158;2022-12-07T06:19:29;36;31;
49914;PMS5003;35806;47.958;13.158;2022-12-07T06:21:56;28;25;
49914;PMS5003;35806;47.958;13.158;2022-12-07T06:24:24;32;25;
49914;PMS5003;35806;47.958;13.158;2022-12-07T06:26:51;26;22;
49914;PMS5003;35806;47.958;13.158;2022-12-07T06:29:19;26;26;
49914;PMS5003;35806;47.958;13.158;2022-12-07T06:31:46;35;32;
49914;PMS5003;35806;47.958;13.158;2022-12-07T06:34:14;28;25;
49914;PMS5003;35806;47.958;13.158;2022-12-07T06:36:43;29;25;
49914;PMS5003;35806;47.958;13.158;2022-12-07T06:39:11;22;22;
49914;PMS5003;35806;47.958;13.158;2022-12-07T06:41:39;33;33;
49914;PMS5003;35806;47.958;13.158;2022-12-07T06:44:06;29;28;
49914;PMS5003;35806;47.958;13.158;2022-12-07T06:46:33;36;27;
49914;PMS5003;35806;47.958;13.158;2022-12-07T06:49:00;29;25;
49914;PMS5003;35806;47.958;13.158;2022-12-07T06:51:28;30;24;
49914;PMS5003;35806;47.958;13.158;2022-12-07T06:53:56;36;27;
49914;PMS5003;35806;47.958;13.158;2022-12-07T06:56:23;31;21;
49914;PMS5003;35806;47.958;13.158;2022-12-07T06:58:50;33;28;
49914;PMS5003;35806;47.958;13.158;2022-12-07T07:01:18;28;24;
49914;PMS5003;35806;47.958;13.158;2022-12-07T07:03:45;36;29;
49914;PMS5003;35806;47.958;13.158;2022-12-07T07:06:13;34;29;
49914;PMS5003;35806;47.958;13.158;2022-12-07T07:08:41;35;28;
49914;PMS5003;35806;47.958;13.158;2022-12-07T07:11:09;35;28;
49914;PMS5003;35806;47.958;13.158;2022-12-07T07:13:36;30;26;
49914;PMS5003;35806;47.958;13.158;2022-12-07T07:16:03;41;35;
49914;PMS5003;35806;47.958;13.158;2022-12-07T07:18:31;38;32;
49914;PMS5003;35806;47.958;13.158;2022-12-07T07:21:05;35;32;
49914;PMS5003;35806;47.958;13.158;2022-12-07T07:23:32;30;26;
49914;PMS5003;35806;47.958;13.158;2022-12-07T07:26:00;30;25;
49914;PMS5003;35806;47.958;13.158;2022-12-07T07:28:27;34;29;
49914;PMS5003;35806;47.958;13.158;2022-12-07T07:30:55;33;31;
49914;PMS5003;35806;47.958;13.158;2022-12-07T07:33:23;31;31;
49914;PMS5003;35806;47.958;13.158;2022-12-07T07:35:50;32;27;
49914;PMS5003;35806;47.958;13.158;2022-12-07T07:38:17;27;26;
49914;PMS5003;35806;47.958;13.158;2022-12-07T07:40:45;34;31;
49914;PMS5003;35806;47.958;13.158;2022-12-07T07:43:12;26;23;
49914;PMS5003;35806;47.958;13.158;2022-12-07T07:45:39;32;26;
49914;PMS5003;35806;47.958;13.158;2022-12-07T07:48:07;28;25;
49914;PMS5003;35806;47.958;13.158;2022-12-07T07:50:34;33;27;
49914;PMS5003;35806;47.958;13.158;2022-12-07T07:53:01;28;28;
49914;PMS5003;35806;47.958;13.158;2022-12-07T07:55:29;34;31;
49914;PMS5003;35806;47.958;13.158;2022-12-07T07:57:56;32;28;
49914;PMS5003;35806;47.958;13.158;2022-12-07T08:00:24;28;26;
49914;PMS5003;35806;47.958;13.158;2022-12-07T08:02:51;34;33;
49914;PMS5003;35806;47.958;13.158;2022-12-07T08:05:18;27;25;
49914;PMS5003;35806;47.958;13.158;2022-12-07T08:07:45;26;24;
49914;PMS5003;35806;47.958;13.158;2022-12-07T08:10:13;25;21;
49914;PMS5003;35806;47.958;13.158;2022-12-07T08:12:41;37;26;
49914;PMS5003;35806;47.958;13.158;2022-12-07T08:15:09;27;24;
49914;PMS5003;35806;47.958;13.158;2022-12-07T08:17:37;24;24;
49914;PMS5003;35806;47.958;13.158;2022-12-07T08:20:04;25;25;
49914;PMS5003;35806;47.958;13.158;2022-12-07T08:22:33;32;26;
49914;PMS5003;35806;47.958;13.158;2022-12-07T08:25:00;26;26;
49914;PMS5003;35806;47.958;13.158;2022-12-07T08:27:27;24;22;
49914;PMS5003;35806;47.958;13.158;2022-12-07T08:29:55;30;23;
49914;PMS5003;35806;47.958;13.158;2022-12-07T08:32:22;28;22;
49914;PMS5003;35806;47.958;13.158;2022-12-07T08:34:50;29;25;
49914;PMS5003;35806;47.958;13.158;2022-12-07T08:37:18;34;30;
49914;PMS5003;35806;47.958;13.158;2022-12-07T08:39:46;35;33;
49914;PMS5003;35806;47.958;13.158;2022-12-07T08:42:13;39;36;
49914;PMS5003;35806;47.958;13.158;2022-12-07T08:44:40;30;28;
49914;PMS5003;35806;47.958;13.158;2022-12-07T08:47:07;30;28;
49914;PMS5003;35806;47.958;13.158;2022-12-07T08:49:37;27;26;
49914;PMS5003;35806;47.958;13.158;2022-12-07T08:52:08;24;23;
49914;PMS5003;35806;47.958;13.158;2022-12-07T08:54:36;28;26;
49914;PMS5003;35806;47.958;13.158;2022-12-07T08:57:06;20;14;
49914;PMS5003;35806;47.958;13.158;2022-12-07T08:59:34;22;21;
49914;PMS5003;35806;47.958;13.158;2022-12-07T09:02:04;19;19;
49914;PMS5003;35806;47.958;13.158;2022-12-07T09:04:31;21;19;
49914;PMS5003;35806;47.958;13.158;2022-12-07T09:06:59;16;15;
49914;PMS5003;35806;47.958;13.158;2022-12-07T09:09:26;22;21;
49914;PMS5003;35806;47.958;13.158;2022-12-07T09:11:52;25;24;
49914;PMS5003;35806;47.958;13.158;2022-12-07T09:14:19;39;33;
49914;PMS5003;35806;47.958;13.158;2022-12-07T09:16:46;32;29;
49914;PMS5003;35806;47.958;13.158;2022-12-07T09:19:14;31;30;
49914;PMS5003;35806;47.958;13.158;2022-12-07T09:21:41;27;25;
49914;PMS5003;35806;47.958;13.158;2022-12-07T09:24:08;23;22;
49914;PMS5003;35806;47.958;13.158;2022-12-07T09:26:36;29;28;
49914;PMS5003;35806;47.958;13.158;2022-12-07T09:29:03;26;26;
49914;PMS5003;35806;47.958;13.158;2022-12-07T09:31:30;29;26;
49914;PMS5003;35806;47.958;13.158;2022-12-07T09:33:58;29;26;
49914;PMS5003;35806;47.958;13.158;2022-12-07T09:36:27;33;31;
49914;PMS5003;35806;47.958;13.158;2022-12-07T09:38:54;35;31;
49914;PMS5003;35806;47.958;13.158;2022-12-07T09:41:22;32;31;
49914;PMS5003;35806;47.958;13.158;2022-12-07T09:43:52;33;30;
49914;PMS5003;35806;47.958;13.158;2022-12-07T09:46:24;32;29;
49914;PMS5003;35806;47.958;13.158;2022-12-07T09:49:08;30;27;
49914;PMS5003;35806;47.958;13.158;2022-12-07T09:51:38;36;29;
49914;PMS5003;35806;47.958;13.158;2022-12-07T09:54:06;37;37;
49914;PMS5003;35806;47.958;13.158;2022-12-07T09:56:38;36;28;
49914;PMS5003;35806;47.958;13.158;2022-12-07T09:59:05;38;37;
49914;PMS5003;35806;47.958;13.158;2022-12-07T10:01:37;34;33;
49914;PMS5003;35806;47.958;13.158;2022-12-07T10:04:09;35;31;
49914;PMS5003;35806;47.958;13.158;2022-12-07T10:06:45;41;38;
49914;PMS5003;35806;47.958;13.158;2022-12-07T10:09:15;35;35;
49914;PMS5003;35806;47.958;13.158;2022-12-07T10:11:59;32;28;
49914;PMS5003;35806;47.958;13.158;2022-12-07T10:14:29;33;32;
49914;PMS5003;35806;47.958;13.158;2022-12-07T10:16:59;35;29;
49914;PMS5003;35806;47.958;13.158;2022-12-07T10:19:31;32;29;
49914;PMS5003;35806;47.958;13.158;2022-12-07T10:22:00;30;29;
49914;PMS5003;35806;47.958;13.158;2022-12-07T10:24:31;42;36;
49914;PMS5003;35806;47.958;13.158;2022-12-07T10:26:59;33;31;
49914;PMS5003;35806;47.958;13.158;2022-12-07T10:29:28;36;30;
49914;PMS5003;35806;47.958;13.158;2022-12-07T10:31:57;38;33;
49914;PMS5003;35806;47.958;13.158;2022-12-07T10:34:27;38;36;
49914;PMS5003;35806;47.958;13.158;2022-12-07T10:37:07;31;29;
49914;PMS5003;35806;47.958;13.158;2022-12-07T10:39:42;37;34;
49914;PMS5003;35806;47.958;13.158;2022-12-07T10:42:16;41;36;
49914;PMS5003;35806;47.958;13.158;2022-12-07T10:44:45;33;31;
49914;PMS5003;35806;47.958;13.158;2022-12-07T10:47:32;31;30;
49914;PMS5003;35806;47.958;13.158;2022-12-07T10:50:10;26;25;
49914;PMS5003;35806;47.958;13.158;2022-12-07T10:53:05;37;35;
49914;PMS5003;35806;47.958;13.158;2022-12-07T10:55:50;28;27;
49914;PMS5003;35806;47.958;13.158;2022-12-07T10:58:31;20;20;
49914;PMS5003;35806;47.958;13.158;2022-12-07T11:01:18;30;23;
49914;PMS5003;35806;47.958;13.158;2022-12-07T11:03:53;26;24;
49914;PMS5003;35806;47.958;13.158;2022-12-07T11:06:34;27;27;
49914;PMS5003;35806;47.958;13.158;2022-12-07T11:09:21;25;25;
49914;PMS5003;35806;47.958;13.158;2022-12-07T11:12:44;24;21;
49914;PMS5003;35806;47.958;13.158;2022-12-07T11:15:21;21;20;
49914;PMS5003;35806;47.958;13.158;2022-12-07T11:17:56;30;27;
49914;PMS5003;35806;47.958;13.158;2022-12-07T11:20:36;26;22;
49914;PMS5003;35806;47.958;13.158;2022-12-07T11:23:13;24;22;
49914;PMS5003;35806;47.958;13.158;2022-12-07T11:25:56;30;23;
49914;PMS5003;35806;47.958;13.158;2022-12-07T11:28:36;21;20;
49914;PMS5003;35806;47.958;13.158;2022-12-07T11:31:27;29;28;
49914;PMS5003;35806;47.958;13.158;2022-12-07T11:34:02;23;21;
49914;PMS5003;35806;47.958;13.158;2022-12-07T11:36:37;26;23;
49914;PMS5003;35806;47.958;13.158;2022-12-07T11:39:12;20;18;
49914;PMS5003;35806;47.958;13.158;2022-12-07T11:41:55;30;28;
49914;PMS5003;35806;47.958;13.158;2022-12-07T11:44:30;24;21;
49914;PMS5003;35806;47.958;13.158;2022-12-07T11:47:01;26;24;
49914;PMS5003;35806;47.958;13.158;2022-12-07T11:49:40;27;23;
49914;PMS5003;35806;47.958;13.158;2022-12-07T11:52:16;19;18;
49914;PMS5003;35806;47.958;13.158;2022-12-07T11:54:49;23;23;
49914;PMS5003;35806;47.958;13.158;2022-12-07T11:57:20;24;22;
49914;PMS5003;35806;47.958;13.158;2022-12-07T11:59:56;20;19;
49914;PMS5003;35806;47.958;13.158;2022-12-07T12:02:28;22;22;
49914;PMS5003;35806;47.958;13.158;2022-12-07T12:05:06;21;18;
49914;PMS5003;35806;47.958;13.158;2022-12-07T12:07:40;18;18;
49914;PMS5003;35806;47.958;13.158;2022-12-07T12:10:15;24;24;
49914;PMS5003;35806;47.958;13.158;2022-12-07T12:12:54;19;17;
49914;PMS5003;35806;47.958;13.158;2022-12-07T12:15:38;27;23;
49914;PMS5003;35806;47.958;13.158;2022-12-07T12:18:22;26;23;
49914;PMS5003;35806;47.958;13.158;2022-12-07T12:21:05;21;17;
49914;PMS5003;35806;47.958;13.158;2022-12-07T12:23:36;16;16;
49914;PMS5003;35806;47.958;13.158;2022-12-07T12:26:08;23;18;
49914;PMS5003;35806;47.958;13.158;2022-12-07T12:28:50;22;19;
49914;PMS5003;35806;47.958;13.158;2022-12-07T12:31:37;21;15;
49914;PMS5003;35806;47.958;13.158;2022-12-07T12:34:29;15;14;
49914;PMS5003;35806;47.958;13.158;2022-12-07T12:36:59;19;17;
49914;PMS5003;35806;47.958;13.158;2022-12-07T12:39:26;18;14;
49914;PMS5003;35806;47.958;13.158;2022-12-07T12:40:03;18;14;
49914;PMS5003;35806;47.958;13.158;2022-12-07T12:43:39;14;13;
49914;PMS5003;35806;47.958;13.158;2022-12-07T12:46:49;15;14;
49914;PMS5003;35806;47.958;13.158;2022-12-07T12:49:36;13;13;
49914;PMS5003;35806;47.958;13.158;2022-12-07T12:54:18;14;13;
49914;PMS5003;35806;47.958;13.158;2022-12-07T12:56:58;19;18;
49914;PMS5003;35806;47.958;13.158;2022-12-07T12:59:38;17;17;
49914;PMS5003;35806;47.958;13.158;2022-12-07T13:02:15;18;18;
49914;PMS5003;35806;47.958;13.158;2022-12-07T13:04:50;20;18;
49914;PMS5003;35806;47.958;13.158;2022-12-07T13:08:24;20;17;
49914;PMS5003;35806;47.958;13.158;2022-12-07T13:10:52;23;21;
49914;PMS5003;35806;47.958;13.158;2022-12-07T13:13:35;18;16;
49914;PMS5003;35806;47.958;13.158;2022-12-07T13:16:40;19;15;
49914;PMS5003;35806;47.958;13.158;2022-12-07T13:20:19;21;21;
49914;PMS5003;35806;47.958;13.158;2022-12-07T13:23:09;19;18;
49914;PMS5003;35806;47.958;13.158;2022-12-07T13:25:41;17;15;
49914;PMS5003;35806;47.958;13.158;2022-12-07T13:28:16;19;19;
49914;PMS5003;35806;47.958;13.158;2022-12-07T13:30:46;15;14;
49914;PMS5003;35806;47.958;13.158;2022-12-07T13:33:27;11;11;
49914;PMS5003;35806;47.958;13.158;2022-12-07T13:35:56;15;13;
49914;PMS5003;35806;47.958;13.158;2022-12-07T13:38:25;35;32;
49914;PMS5003;35806;47.958;13.158;2022-12-07T13:38:49;40;35;
49914;PMS5003;35806;47.958;13.158;2022-12-07T13:41:18;54;50;
49914;PMS5003;35806;47.958;13.158;2022-12-07T13:43:50;48;44;
49914;PMS5003;35806;47.958;13.158;2022-12-07T13:46:20;45;43;
49914;PMS5003;35806;47.958;13.158;2022-12-07T13:46:44;45;43;
49914;PMS5003;35806;47.958;13.158;2022-12-07T13:49:20;16;15;
49914;PMS5003;35806;47.958;13.158;2022-12-07T13:51:49;35;33;
49914;PMS5003;35806;47.958;13.158;2022-12-07T13:54:17;50;48;
49914;PMS5003;35806;47.958;13.158;2022-12-07T13:56:47;59;54;
49914;PMS5003;35806;47.958;13.158;2022-12-07T13:59:18;13;13;
49914;PMS5003;35806;47.958;13.158;2022-12-07T14:01:47;86;84;
49914;PMS5003;35806;47.958;13.158;2022-12-07T14:04:17;41;36;
49914;PMS5003;35806;47.958;13.158;2022-12-07T14:06:54;16;14;
49914;PMS5003;35806;47.958;13.158;2022-12-07T14:09:22;16;15;
49914;PMS5003;35806;47.958;13.158;2022-12-07T14:11:51;22;16;
49914;PMS5003;35806;47.958;13.158;2022-12-07T14:14:21;18;18;
49914;PMS5003;35806;47.958;13.158;2022-12-07T14:16:59;15;13;
49914;PMS5003;35806;47.958;13.158;2022-12-07T14:19:45;17;15;
49914;PMS5003;35806;47.958;13.158;2022-12-07T14:22:20;18;15;
49914;PMS5003;35806;47.958;13.158;2022-12-07T14:24:50;25;23;
49914;PMS5003;35806;47.958;13.158;2022-12-07T14:27:29;59;51;
49914;PMS5003;35806;47.958;13.158;2022-12-07T14:29:59;55;47;
49914;PMS5003;35806;47.958;13.158;2022-12-07T14:32:27;24;23;
49914;PMS5003;35806;47.958;13.158;2022-12-07T14:34:57;24;21;
49914;PMS5003;35806;47.958;13.158;2022-12-07T14:37:26;24;24;
49914;PMS5003;35806;47.958;13.158;2022-12-07T14:39:55;22;21;
49914;PMS5003;35806;47.958;13.158;2022-12-07T14:42:23;17;17;
49914;PMS5003;35806;47.958;13.158;2022-12-07T14:44:54;19;16;
49914;PMS5003;35806;47.958;13.158;2022-12-07T14:47:21;19;15;
49914;PMS5003;35806;47.958;13.158;2022-12-07T14:49:49;19;16;
49914;PMS5003;35806;47.958;13.158;2022-12-07T14:52:17;20;20;
49914;PMS5003;35806;47.958;13.158;2022-12-07T14:54:47;14;12;
49914;PMS5003;35806;47.958;13.158;2022-12-07T14:57:14;19;15;
49914;PMS5003;35806;47.958;13.158;2022-12-07T14:59:42;16;15;
49914;PMS5003;35806;47.958;13.158;2022-12-07T15:02:10;14;14;
49914;PMS5003;35806;47.958;13.158;2022-12-07T15:04:39;22;20;
49914;PMS5003;35806;47.958;13.158;2022-12-07T15:07:09;12;12;
49914;PMS5003;35806;47.958;13.158;2022-12-07T15:09:42;14;14;
49914;PMS5003;35806;47.958;13.158;2022-12-07T15:12:09;13;13;
49914;PMS5003;35806;47.958;13.158;2022-12-07T15:14:37;17;14;
49914;PMS5003;35806;47.958;13.158;2022-12-07T15:17:04;23;18;
49914;PMS5003;35806;47.958;13.158;2022-12-07T15:19:32;16;14;
49914;PMS5003;35806;47.958;13.158;2022-12-07T15:21:59;18;15;
49914;PMS5003;35806;47.958;13.158;2022-12-07T15:24:27;20;18;
49914;PMS5003;35806;47.958;13.158;2022-12-07T15:26:54;22;16;
49914;PMS5003;35806;47.958;13.158;2022-12-07T15:29:22;21;17;
49914;PMS5003;35806;47.958;13.158;2022-12-07T15:31:49;19;16;
49914;PMS5003;35806;47.958;13.158;2022-12-07T15:34:17;15;15;
49914;PMS5003;35806;47.958;13.158;2022-12-07T15:36:45;13;12;
49914;PMS5003;35806;47.958;13.158;2022-12-07T15:39:12;15;14;
49914;PMS5003;35806;47.958;13.158;2022-12-07T15:41:39;15;15;
49914;PMS5003;35806;47.958;13.158;2022-12-07T15:44:07;15;14;
49914;PMS5003;35806;47.958;13.158;2022-12-07T15:46:37;16;15;
49914;PMS5003;35806;47.958;13.158;2022-12-07T15:49:08;24;20;
49914;PMS5003;35806;47.958;13.158;2022-12-07T15:51:38;14;12;
49914;PMS5003;35806;47.958;13.158;2022-12-07T15:54:07;14;12;
49914;PMS5003;35806;47.958;13.158;2022-12-07T15:56:38;27;23;
49914;PMS5003;35806;47.958;13.158;2022-12-07T15:59:05;22;19;
49914;PMS5003;35806;47.958;13.158;2022-12-07T16:01:33;18;15;
49914;PMS5003;35806;47.958;13.158;2022-12-07T16:04:00;15;13;
49914;PMS5003;35806;47.958;13.158;2022-12-07T16:06:28;11;11;
49914;PMS5003;35806;47.958;13.158;2022-12-07T16:08:55;14;12;
49914;PMS5003;35806;47.958;13.158;2022-12-07T16:11:23;17;15;
49914;PMS5003;35806;47.958;13.158;2022-12-07T16:13:50;15;13;
49914;PMS5003;35806;47.958;13.158;2022-12-07T16:16:18;20;18;
49914;PMS5003;35806;47.958;13.158;2022-12-07T16:18:46;14;13;
49914;PMS5003;35806;47.958;13.158;2022-12-07T16:21:14;22;18;
49914;PMS5003;35806;47.958;13.158;2022-12-07T16:23:42;19;16;
49914;PMS5003;35806;47.958;13.158;2022-12-07T16:26:11;13;12;
49914;PMS5003;35806;47.958;13.158;2022-12-07T16:28:40;17;15;
49914;PMS5003;35806;47.958;13.158;2022-12-07T16:31:08;13;13;
49914;PMS5003;35806;47.958;13.158;2022-12-07T16:33:38;12;11;
49914;PMS5003;35806;47.958;13.158;2022-12-07T16:36:08;17;14;
49914;PMS5003;35806;47.958;13.158;2022-12-07T16:38:37;20;17;
49914;PMS5003;35806;47.958;13.158;2022-12-07T16:41:05;23;21;